METAR AND TAF INFORMATION
METAR FOR ENCN
ADDS - METARS form results

(1440 UTC 27 February 2020)
Data provider http://aviationweather.gov/metar/data/
 
METAR text: ENCN 271420Z 03012KT 9999 -FZDZ OVC008 M00/M01 Q0995
Conditions at: ENCN (KRISTIANSAND/KJE, NO) observed 1420 UTC 27 February 2020
Temperature: 0.0°C (32°F)
Dewpoint: -1.0°C (30°F) [RH = 93%]
Pressure (altimeter): 29.38 inches Hg (995.0 mb)
Winds: from the NNE (30 degrees) at 14 MPH (12 knots; 6.2 m/s)
Visibility: 6 or more miles (10+ km)
Ceiling: 800 feet AGL
Clouds: overcast cloud deck at 800 feet AGL
Weather: -FZDZ  (light freezing drizzle)

METAR text: ENCN 271350Z 03011KT 8000 DZ OVC007 00/M01 Q0995
Conditions at: ENCN (KRISTIANSAND/KJE, NO) observed 1350 UTC 27 February 2020
Temperature: 0.0°C (32°F)
Dewpoint: -1.0°C (30°F) [RH = 93%]
Pressure (altimeter): 29.38 inches Hg (995.0 mb)
Winds: from the NNE (30 degrees) at 13 MPH (11 knots; 5.7 m/s)
Visibility: 5 miles ( 8 km)
Ceiling: 700 feet AGL
Clouds: overcast cloud deck at 700 feet AGL
Weather: DZ  (moderate drizzle)

Forecast for: ENCN (KRISTIANSAND/KJE, NO)
Text: TAF ENCN 271400Z 2715/2722 04012KT 8000 -SN SCT007 BKN012
Forecast period: 1500 to 2200 UTC 27 February 2020
Forecast type: FROM: standard forecast or significant change
Winds: from the NE (40 degrees) at 14 MPH (12 knots; 6.2 m/s)
Visibility: 5 miles (8 km)
Ceiling: 1200 feet AGL
Clouds: scattered clouds at 700 feet AGL
broken clouds at 1200 feet AGL
Weather: -SN  (light snow)
Text: TEMPO 2715/2722 1000 SHSN OVC006 FEW015CB
Forecast period: 1500 to 2200 UTC 27 February 2020
Forecast type: TEMPORARY: The following changes expected for less than half the time period
Visibility: 0.62 miles (1.00 km)
Ceiling: 600 feet AGL
Clouds: overcast cloud deck at 600 feet AGL
few clouds at 1500 feet AGL
Weather: SHSN  (snow showers)

 AIRPORT MAP

 RUNWAY INFORMATION
Runway 04 Runway length 6660 ft Runway width 148 ft
Runway elevation 41 ft Runway displaced threshold 394 ft Runway heading 35
Runway 22 Runway length 6660 ft Runway width 148 ft
Runway elevation 52 ft Runway displaced threshold 623 ft Runway heading 215

 AIRPORT FREQUENCIES
Type ATIS Name INFO Frequency 124.475 MHZ
Type TWR Name TWR Frequency 118.1 MHZ

 AIRPORT NEAR NAVIGATION AIDS
Type NDB Name Odderoy Frequency 372 KHZ
Type VOR-DME Name Svensheia Frequency 112100 KHZ



Powered by Virtual Airlines Manager [v2.6.2]